Time;durP1;ratioP1;P1;durP2;ratioP2;P2;SDS_P1;SDS_P2;PMS_P1;PMS_P2;Temp;Humidity;BMP_temperature;BMP_pressure;BME280_temperature;BME280_humidity;BME280_pressure;Samples;Min_cycle;Max_cycle;Signal;HPM_P1;HPM_P2
2023/01/14 00:01:44;;;;;;;2.90;1.50;;;9.70;1.00;;;;;;5045263;28;20462;-56
2023/01/14 00:04:09;;;;;;;3.30;1.53;;;9.70;1.00;;;;;;5043209;28;20457;-53
2023/01/14 00:06:36;;;;;;;3.60;1.10;;;9.70;1.00;;;;;;5043463;28;20451;-53
2023/01/14 00:09:08;;;;;;;2.63;1.20;;;9.70;1.00;;;;;;5048596;28;20249;-53
2023/01/14 00:11:45;;;;;;;1.87;0.90;;;9.70;1.00;;;;;;5045079;28;20479;-54
2023/01/14 00:14:13;;;;;;;4.13;1.50;;;9.70;1.00;;;;;;5048996;28;20550;-55
2023/01/14 00:16:40;;;;;;;2.20;1.53;;;9.70;1.00;;;;;;5034790;28;20537;-55
2023/01/14 00:19:06;;;;;;;2.80;1.30;;;9.60;1.00;;;;;;5036696;28;20472;-54
2023/01/14 00:21:32;;;;;;;6.87;1.77;;;9.60;1.00;;;;;;5038831;28;20449;-54
2023/01/14 00:23:57;;;;;;;2.27;1.30;;;9.60;1.00;;;;;;5040016;28;20841;-54
2023/01/14 00:26:25;;;;;;;3.67;1.53;;;9.60;1.00;;;;;;5036548;28;20225;-53
2023/01/14 00:28:51;;;;;;;4.60;1.47;;;9.50;1.00;;;;;;5046228;28;20652;-53
2023/01/14 00:31:19;;;;;;;3.50;1.20;;;9.50;1.00;;;;;;5047302;28;20455;-55
2023/01/14 00:33:45;;;;;;;3.00;1.10;;;9.50;1.00;;;;;;5039404;28;20339;-53
2023/01/14 00:36:13;;;;;;;4.20;1.37;;;9.50;1.00;;;;;;5036552;28;20540;-56
2023/01/14 00:38:39;;;;;;;3.20;1.20;;;9.50;1.00;;;;;;5034851;28;20457;-54
2023/01/14 00:41:14;;;;;;;3.03;1.17;;;9.50;1.00;;;;;;5035725;28;20784;-53
2023/01/14 00:43:43;;;;;;;1.57;1.10;;;9.50;1.00;;;;;;5035656;28;20950;-53
2023/01/14 00:46:20;;;;;;;2.10;1.00;;;9.50;1.00;;;;;;5033249;28;20545;-55
2023/01/14 00:48:46;;;;;;;4.13;1.67;;;9.50;1.00;;;;;;5034657;28;20509;-55
2023/01/14 00:51:13;;;;;;;2.63;1.07;;;9.60;1.00;;;;;;5035073;28;20466;-53
2023/01/14 00:53:40;;;;;;;2.70;1.07;;;9.60;1.00;;;;;;5036559;28;20436;-55
2023/01/14 00:56:06;;;;;;;4.47;1.83;;;9.50;1.00;;;;;;5033955;28;20446;-55
2023/01/14 00:58:32;;;;;;;4.73;1.30;;;9.50;1.00;;;;;;5036372;28;20448;-54
2023/01/14 01:00:58;;;;;;;6.67;1.40;;;9.40;1.00;;;;;;5036102;28;20496;-54
2023/01/14 01:03:24;;;;;;;2.47;1.27;;;9.50;1.00;;;;;;5043025;28;20592;-55
2023/01/14 01:05:51;;;;;;;2.30;1.27;;;9.50;1.00;;;;;;5037099;28;20450;-55
2023/01/14 01:08:19;;;;;;;3.93;1.30;;;9.50;1.00;;;;;;5037195;28;20451;-54
2023/01/14 01:10:46;;;;;;;3.13;1.37;;;9.50;1.00;;;;;;5036880;28;21158;-56
2023/01/14 01:13:12;;;;;;;2.80;1.00;;;9.40;1.00;;;;;;5041412;28;20442;-53
2023/01/14 01:15:39;;;;;;;3.47;1.30;;;9.50;1.00;;;;;;5042063;28;20457;-55
2023/01/14 01:18:06;;;;;;;1.40;1.13;;;9.60;1.00;;;;;;5044790;28;20503;-55
2023/01/14 01:20:33;;;;;;;2.00;1.20;;;9.80;1.00;;;;;;5039028;28;20934;-54
2023/01/14 01:22:59;;;;;;;3.70;1.43;;;9.70;1.00;;;;;;5044336;28;20459;-55
2023/01/14 01:25:25;;;;;;;3.33;1.30;;;9.80;1.00;;;;;;5036187;28;20495;-53
2023/01/14 01:27:52;;;;;;;5.23;1.30;;;9.70;1.00;;;;;;5034529;28;20471;-52
2023/01/14 01:30:18;;;;;;;1.63;0.93;;;9.80;1.00;;;;;;5034745;28;21424;-53
2023/01/14 01:32:44;;;;;;;7.00;1.40;;;9.90;1.00;;;;;;5035823;28;20453;-54
2023/01/14 01:35:10;;;;;;;2.00;1.20;;;9.80;1.00;;;;;;5035761;28;20626;-54
2023/01/14 01:37:36;;;;;;;6.83;1.20;;;9.80;1.00;;;;;;5034972;28;20208;-54
2023/01/14 01:40:01;;;;;;;3.13;1.07;;;9.80;1.00;;;;;;5033284;28;20479;-55
2023/01/14 01:42:33;;;;;;;1.80;0.93;;;9.90;1.00;;;;;;5050938;28;20449;-55
2023/01/14 01:45:31;;;;;;;3.30;1.17;;;9.90;1.00;;;;;;5053725;28;20250;-56
2023/01/14 01:48:12;;;;;;;2.00;1.10;;;9.80;1.00;;;;;;5041430;28;20467;-55
2023/01/14 01:50:38;;;;;;;3.20;0.80;;;9.80;1.00;;;;;;5033401;28;20554;-55
2023/01/14 01:53:05;;;;;;;3.53;1.30;;;9.90;1.00;;;;;;5033764;28;20861;-56
2023/01/14 01:55:35;;;;;;;4.27;2.53;;;9.90;1.00;;;;;;5034456;28;20527;-54
2023/01/14 01:58:02;;;;;;;5.57;1.50;;;9.80;1.00;;;;;;5033632;28;20480;-53
2023/01/14 02:00:27;;;;;;;1.70;1.00;;;9.80;1.00;;;;;;5034457;28;20931;-54
2023/01/14 02:02:58;;;;;;;1.93;0.90;;;9.70;1.00;;;;;;5038745;28;20445;-55
2023/01/14 02:05:25;;;;;;;2.10;1.10;;;9.80;1.00;;;;;;5036894;28;20207;-53
2023/01/14 02:07:50;;;;;;;3.17;0.90;;;9.80;1.00;;;;;;5046644;28;21073;-54
2023/01/14 02:10:17;;;;;;;2.70;0.77;;;9.80;1.00;;;;;;5048227;28;20494;-56
2023/01/14 02:12:58;;;;;;;4.30;1.60;;;9.80;1.00;;;;;;5046987;28;20664;-53
2023/01/14 02:15:45;;;;;;;3.70;1.07;;;9.80;1.00;;;;;;5046043;28;20442;-54
2023/01/14 02:18:29;;;;;;;2.73;1.50;;;9.80;1.00;;;;;;5043791;28;20775;-54
2023/01/14 02:21:02;;;;;;;2.80;1.30;;;9.80;1.00;;;;;;5043113;28;20779;-53
2023/01/14 02:23:57;;;;;;;3.90;1.17;;;9.70;1.00;;;;;;5044977;28;20529;-55
2023/01/14 02:26:32;;;;;;;2.90;0.87;;;9.80;1.00;;;;;;5046521;28;20983;-54
2023/01/14 02:29:16;;;;;;;2.23;1.17;;;9.80;1.00;;;;;;5043146;28;21008;-55
2023/01/14 02:31:56;;;;;;;4.10;1.37;;;9.90;1.00;;;;;;5045912;28;20531;-55
2023/01/14 02:34:27;;;;;;;4.63;1.27;;;9.90;1.00;;;;;;5049244;28;20448;-52
2023/01/14 02:37:07;;;;;;;3.90;1.50;;;9.80;1.00;;;;;;5045013;28;20452;-55
2023/01/14 02:39:41;;;;;;;3.73;1.00;;;9.80;1.00;;;;;;5046272;28;20749;-53
2023/01/14 02:45:26;;;;;;;5.07;1.20;;;9.80;1.00;;;;;;5048992;28;22149;-54
2023/01/14 02:47:52;;;;;;;2.43;1.10;;;9.70;1.00;;;;;;5050086;28;20461;-53
2023/01/14 02:50:19;;;;;;;4.43;1.20;;;9.70;1.00;;;;;;5048254;28;20472;-54
2023/01/14 02:52:45;;;;;;;4.90;1.10;;;9.80;1.00;;;;;;5050635;28;20470;-54
2023/01/14 02:55:31;;;;;;;4.20;1.43;;;9.90;1.00;;;;;;5050712;28;20938;-54
2023/01/14 02:58:02;;;;;;;8.60;1.50;;;10.00;1.00;;;;;;5050518;28;20452;-54
2023/01/14 03:00:50;;;;;;;2.97;1.07;;;9.90;1.00;;;;;;5048830;28;20444;-56
2023/01/14 03:03:37;;;;;;;4.53;1.43;;;9.90;1.00;;;;;;5043974;28;20449;-53
2023/01/14 03:06:33;;;;;;;2.63;0.90;;;9.90;1.00;;;;;;5049796;28;20479;-53
2023/01/14 03:09:21;;;;;;;5.57;1.17;;;9.90;1.00;;;;;;5046783;28;20439;-54
2023/01/14 03:11:49;;;;;;;1.37;1.13;;;10.00;1.00;;;;;;5049308;28;20451;-54
2023/01/14 03:14:32;;;;;;;2.53;1.00;;;10.10;1.00;;;;;;5048739;28;20495;-54
2023/01/14 03:17:10;;;;;;;2.43;1.50;;;10.00;1.00;;;;;;5050275;28;20462;-54
2023/01/14 03:19:42;;;;;;;2.73;0.83;;;10.00;1.00;;;;;;5044282;28;20928;-53
2023/01/14 03:22:09;;;;;;;4.30;1.47;;;10.00;1.00;;;;;;5050854;28;20448;-53
2023/01/14 03:24:44;;;;;;;3.80;1.20;;;9.90;1.00;;;;;;5047010;28;20480;-53
2023/01/14 03:27:18;;;;;;;2.90;1.07;;;10.00;1.00;;;;;;5044144;28;20819;-54
2023/01/14 03:29:48;;;;;;;4.80;0.90;;;10.00;1.00;;;;;;5035530;28;20449;-54
2023/01/14 03:32:31;;;;;;;2.17;0.87;;;9.90;1.00;;;;;;5037452;28;22918;-53
2023/01/14 03:35:10;;;;;;;3.47;0.87;;;9.90;1.00;;;;;;5036236;28;20460;-55
2023/01/14 03:37:39;;;;;;;2.47;0.90;;;10.00;1.00;;;;;;5037009;28;21681;-53
2023/01/14 03:40:09;;;;;;;1.43;0.87;;;9.90;1.00;;;;;;5036051;28;20460;-56
2023/01/14 03:42:42;;;;;;;2.63;0.63;;;9.90;1.00;;;;;;5037712;28;20457;-54
2023/01/14 03:45:14;;;;;;;4.20;1.10;;;10.00;1.00;;;;;;5036425;28;20473;-53
2023/01/14 03:47:41;;;;;;;4.03;1.23;;;9.90;1.00;;;;;;5036060;28;20947;-55
2023/01/14 03:50:12;;;;;;;2.90;1.00;;;9.90;1.00;;;;;;5037000;28;20571;-53
2023/01/14 03:53:12;;;;;;;4.33;1.30;;;9.80;1.00;;;;;;5037401;28;20456;-53
2023/01/14 03:56:13;;;;;;;2.43;0.90;;;9.70;1.00;;;;;;5036281;28;20535;-53
2023/01/14 03:59:02;;;;;;;1.70;1.00;;;9.70;1.00;;;;;;4956475;28;20501;-53
2023/01/14 04:01:32;;;;;;;2.07;0.80;;;9.70;1.00;;;;;;5036220;28;21282;-53
2023/01/14 04:04:00;;;;;;;1.97;0.90;;;9.70;1.00;;;;;;5039792;28;20453;-54
2023/01/14 04:06:25;;;;;;;2.87;1.20;;;9.80;1.00;;;;;;5034573;28;20479;-52
2023/01/14 04:08:51;;;;;;;3.90;1.30;;;9.80;1.00;;;;;;5035997;28;20457;-54
2023/01/14 04:11:17;;;;;;;1.80;0.90;;;9.80;1.00;;;;;;5036245;28;20181;-54
2023/01/14 04:16:27;;;;;;;2.53;0.83;;;9.60;1.00;;;;;;5038044;28;20197;-53
2023/01/14 04:18:52;;;;;;;4.60;1.40;;;9.60;1.00;;;;;;5035181;28;20428;-54
2023/01/14 04:21:18;;;;;;;2.93;0.70;;;9.70;1.00;;;;;;5043666;28;20202;-55
2023/01/14 04:23:43;;;;;;;2.40;1.47;;;9.60;1.00;;;;;;5046599;28;20760;-52
2023/01/14 04:26:09;;;;;;;5.00;1.40;;;9.70;1.00;;;;;;5035658;28;20267;-55
2023/01/14 04:28:35;;;;;;;3.33;1.30;;;9.80;1.00;;;;;;5045706;28;20186;-54
2023/01/14 04:31:00;;;;;;;4.30;1.00;;;9.80;1.00;;;;;;5044179;28;20434;-53
2023/01/14 04:33:26;;;;;;;4.47;1.90;;;9.80;1.00;;;;;;5042175;28;20186;-54
2023/01/14 04:35:51;;;;;;;3.70;1.07;;;9.80;1.00;;;;;;5045692;28;20198;-54
2023/01/14 04:38:20;;;;;;;4.93;1.00;;;9.80;1.00;;;;;;5043418;28;20187;-55
2023/01/14 04:40:49;;;;;;;4.83;1.33;;;9.80;1.00;;;;;;5044027;28;20232;-53
2023/01/14 04:43:15;;;;;;;4.57;1.40;;;9.80;1.00;;;;;;5036511;28;20452;-53
2023/01/14 04:45:40;;;;;;;5.00;1.20;;;9.80;1.00;;;;;;5033542;28;20492;-53
2023/01/14 04:48:06;;;;;;;5.03;1.00;;;9.70;1.00;;;;;;5036506;28;20680;-53
2023/01/14 04:50:33;;;;;;;2.97;0.80;;;10.00;1.00;;;;;;5034230;28;20226;-53
2023/01/14 04:53:09;;;;;;;3.30;1.07;;;9.60;1.00;;;;;;5036318;28;20190;-54
2023/01/14 04:55:37;;;;;;;3.83;1.30;;;9.50;1.00;;;;;;5036335;28;20475;-52
2023/01/14 04:58:04;;;;;;;2.50;1.17;;;9.60;1.00;;;;;;5035960;28;20452;-55
2023/01/14 05:00:29;;;;;;;3.83;1.40;;;9.60;1.00;;;;;;5035392;28;20452;-55
2023/01/14 05:02:55;;;;;;;10.67;1.57;;;9.60;1.00;;;;;;5036705;28;20478;-55
2023/01/14 05:05:20;;;;;;;7.00;1.30;;;9.50;1.00;;;;;;5035164;28;20743;-56
2023/01/14 05:07:46;;;;;;;5.57;2.03;;;9.50;1.00;;;;;;5033047;28;20194;-54
2023/01/14 05:10:12;;;;;;;2.97;1.30;;;9.50;1.00;;;;;;5033939;28;20194;-55
2023/01/14 05:12:38;;;;;;;6.57;1.17;;;9.40;1.00;;;;;;5034170;28;20195;-53
2023/01/14 05:15:04;;;;;;;6.60;1.40;;;9.50;1.00;;;;;;5034941;28;20207;-53
2023/01/14 05:17:29;;;;;;;4.33;1.20;;;9.50;1.00;;;;;;5035136;28;20674;-55
2023/01/14 05:19:55;;;;;;;4.50;1.33;;;9.50;1.00;;;;;;5034875;28;20445;-57
2023/01/14 05:22:20;;;;;;;5.10;1.40;;;9.40;1.00;;;;;;5033121;28;20788;-55
2023/01/14 05:24:46;;;;;;;3.50;1.20;;;9.40;1.00;;;;;;5033619;28;20210;-55
2023/01/14 05:27:12;;;;;;;5.83;1.27;;;9.30;1.00;;;;;;5032319;28;20194;-55
2023/01/14 05:29:38;;;;;;;2.30;1.20;;;9.40;1.00;;;;;;5033705;28;20762;-53
2023/01/14 05:32:04;;;;;;;2.43;0.90;;;9.40;1.00;;;;;;5032869;28;20179;-54
2023/01/14 05:34:30;;;;;;;2.87;1.00;;;9.40;1.00;;;;;;5040668;28;20480;-54
2023/01/14 05:36:56;;;;;;;3.90;1.20;;;9.40;1.00;;;;;;5033965;28;20468;-53
2023/01/14 05:39:22;;;;;;;6.63;1.37;;;9.50;1.00;;;;;;5034601;28;20453;-55
2023/01/14 05:47:16;;;;;;;5.77;1.30;;;9.50;1.00;;;;;;5033735;28;20426;-54
2023/01/14 05:49:42;;;;;;;2.30;1.00;;;9.40;1.00;;;;;;5037236;28;20476;-53
2023/01/14 05:52:07;;;;;;;3.70;1.00;;;9.50;1.00;;;;;;5048335;28;20190;-53
2023/01/14 05:54:33;;;;;;;6.63;1.53;;;9.50;1.00;;;;;;5048408;28;20195;-53
2023/01/14 05:56:58;;;;;;;3.07;1.00;;;9.50;1.00;;;;;;5044474;28;20669;-53
2023/01/14 05:59:24;;;;;;;4.30;1.00;;;9.40;1.00;;;;;;5048654;28;20276;-53
2023/01/14 06:07:18;;;;;;;3.87;1.23;;;9.30;1.00;;;;;;5033365;28;20451;-53
2023/01/14 06:09:43;;;;;;;4.27;1.30;;;9.50;1.00;;;;;;5034976;28;20449;-54
2023/01/14 06:12:09;;;;;;;3.50;1.03;;;9.50;1.00;;;;;;5034268;28;20188;-53
2023/01/14 06:14:34;;;;;;;5.03;1.30;;;9.30;1.00;;;;;;5034098;28;20564;-55
2023/01/14 06:17:05;;;;;;;5.00;1.53;;;9.30;1.00;;;;;;5042290;28;20267;-55
2023/01/14 06:19:30;;;;;;;8.67;1.70;;;9.30;1.00;;;;;;5049117;28;20564;-54
2023/01/14 06:21:56;;;;;;;3.90;1.37;;;9.30;1.00;;;;;;5052938;28;20535;-53
2023/01/14 06:24:22;;;;;;;5.13;1.20;;;9.30;1.00;;;;;;5054826;28;20186;-53
2023/01/14 06:26:47;;;;;;;2.90;1.40;;;9.20;1.00;;;;;;5052330;28;20186;-53
2023/01/14 06:29:13;;;;;;;4.67;1.60;;;9.20;1.00;;;;;;5052671;28;20194;-54
2023/01/14 06:31:40;;;;;;;3.30;1.40;;;9.20;1.00;;;;;;5051689;28;20190;-54
2023/01/14 06:34:06;;;;;;;1.67;1.20;;;9.20;1.00;;;;;;5052086;28;20214;-54
2023/01/14 06:36:37;;;;;;;4.93;1.37;;;9.20;1.00;;;;;;5047946;28;20461;-55
2023/01/14 06:39:03;;;;;;;2.23;1.30;;;9.20;1.00;;;;;;5055622;28;20453;-54
2023/01/14 06:41:29;;;;;;;4.93;1.20;;;9.10;1.00;;;;;;5052134;28;20454;-54
2023/01/14 06:43:54;;;;;;;3.23;2.13;;;9.10;1.00;;;;;;5043752;28;20969;-53
2023/01/14 06:46:20;;;;;;;2.90;1.30;;;9.10;1.00;;;;;;5048278;28;20471;-54
2023/01/14 06:48:46;;;;;;;2.27;1.10;;;9.10;1.00;;;;;;5047486;28;22556;-54
2023/01/14 06:51:14;;;;;;;2.03;1.40;;;9.00;1.00;;;;;;5050105;28;20189;-55
2023/01/14 06:53:41;;;;;;;3.07;1.30;;;9.00;1.00;;;;;;5047743;28;20685;-53
2023/01/14 06:56:13;;;;;;;2.50;0.97;;;9.10;1.00;;;;;;5049454;28;20445;-55
2023/01/14 06:58:39;;;;;;;4.13;1.40;;;9.00;1.00;;;;;;5040852;28;20450;-53
2023/01/14 07:01:07;;;;;;;2.90;1.07;;;9.10;1.00;;;;;;5040224;28;20555;-55
2023/01/14 07:03:32;;;;;;;6.03;1.70;;;9.10;1.00;;;;;;5041225;28;20944;-55
2023/01/14 07:05:59;;;;;;;5.57;1.27;;;9.10;1.00;;;;;;5040995;28;20491;-53
2023/01/14 07:08:25;;;;;;;4.83;0.90;;;9.10;1.00;;;;;;5048610;28;20540;-53
2023/01/14 07:10:51;;;;;;;3.20;1.20;;;9.20;1.00;;;;;;5052087;28;20517;-55
2023/01/14 07:13:18;;;;;;;2.60;1.10;;;9.10;1.00;;;;;;5051483;28;20453;-53
2023/01/14 07:15:44;;;;;;;3.50;1.40;;;9.00;1.00;;;;;;5050897;28;20448;-54
2023/01/14 07:18:11;;;;;;;5.03;2.10;;;9.20;1.00;;;;;;5042937;28;20995;-54
2023/01/14 07:20:37;;;;;;;4.70;2.03;;;9.10;1.00;;;;;;5042713;28;20453;-53
2023/01/14 07:23:03;;;;;;;5.10;1.67;;;9.10;1.00;;;;;;5049422;28;20453;-53
2023/01/14 07:25:29;;;;;;;3.20;1.63;;;9.10;1.00;;;;;;5050783;28;20491;-53
2023/01/14 07:27:54;;;;;;;3.63;1.40;;;8.90;1.00;;;;;;5051784;28;20444;-55
2023/01/14 07:30:20;;;;;;;2.17;1.70;;;8.90;1.00;;;;;;5050664;28;20647;-54
2023/01/14 07:32:46;;;;;;;2.13;1.30;;;9.00;1.00;;;;;;5047908;28;20202;-53
2023/01/14 07:35:12;;;;;;;4.70;1.53;;;8.90;1.00;;;;;;5049681;28;21009;-54
2023/01/14 07:37:37;;;;;;;4.43;1.70;;;8.90;1.00;;;;;;5048472;28;20388;-53
2023/01/14 07:40:04;;;;;;;5.60;1.60;;;8.90;1.00;;;;;;5041263;28;20197;-55
2023/01/14 07:42:29;;;;;;;2.77;1.80;;;8.70;1.00;;;;;;5040983;28;20277;-54
2023/01/14 07:44:55;;;;;;;4.90;1.67;;;8.70;1.00;;;;;;5043464;28;20606;-55
2023/01/14 07:47:21;;;;;;;2.97;1.60;;;8.80;1.00;;;;;;5045440;28;20201;-54
2023/01/14 07:49:46;;;;;;;3.03;1.20;;;8.80;1.00;;;;;;5044748;28;20232;-54
2023/01/14 07:52:12;;;;;;;4.73;1.70;;;8.70;1.00;;;;;;5038199;28;20247;-54
2023/01/14 07:54:39;;;;;;;5.20;2.03;;;9.00;1.00;;;;;;5040180;28;20190;-55
2023/01/14 07:57:10;;;;;;;8.30;1.50;;;9.00;1.00;;;;;;5042826;28;21054;-53
2023/01/14 07:59:36;;;;;;;5.80;1.23;;;9.10;1.00;;;;;;5046040;28;20461;-56
2023/01/14 08:02:02;;;;;;;3.40;1.37;;;9.20;1.00;;;;;;5049948;28;20488;-56
2023/01/14 08:04:28;;;;;;;4.10;1.60;;;9.30;1.00;;;;;;5050429;28;20753;-56
2023/01/14 08:06:56;;;;;;;9.20;2.03;;;9.40;1.00;;;;;;5040256;28;20192;-55
2023/01/14 08:09:22;;;;;;;2.37;1.10;;;9.40;1.00;;;;;;5039710;28;20750;-55
2023/01/14 08:11:48;;;;;;;4.33;1.10;;;9.50;1.00;;;;;;5039429;28;20559;-56
2023/01/14 08:14:13;;;;;;;8.10;1.70;;;9.50;1.00;;;;;;5038342;28;20195;-54
2023/01/14 08:16:39;;;;;;;3.87;1.43;;;9.70;1.00;;;;;;5042600;28;20191;-55
2023/01/14 08:19:04;;;;;;;4.70;1.70;;;9.60;1.00;;;;;;5040536;28;20190;-55
2023/01/14 08:21:30;;;;;;;8.80;1.87;;;9.70;1.00;;;;;;5041423;28;20195;-55
2023/01/14 08:23:56;;;;;;;3.87;1.30;;;9.80;1.00;;;;;;5037822;28;20197;-55
2023/01/14 08:26:21;;;;;;;3.97;1.13;;;9.80;1.00;;;;;;5039088;28;20347;-54
2023/01/14 08:28:47;;;;;;;3.63;1.43;;;9.70;1.00;;;;;;5037476;28;20191;-54
2023/01/14 08:31:15;;;;;;;3.90;1.20;;;9.60;1.00;;;;;;5043837;28;20687;-56
2023/01/14 08:33:42;;;;;;;5.53;2.10;;;9.60;1.00;;;;;;5048919;28;20217;-53
2023/01/14 08:36:14;;;;;;;6.07;1.50;;;9.60;1.00;;;;;;5046574;28;20535;-53
2023/01/14 08:38:44;;;;;;;3.10;1.60;;;9.40;1.00;;;;;;5049739;28;20446;-54
2023/01/14 08:41:13;;;;;;;2.87;1.50;;;9.40;1.00;;;;;;5049611;28;20944;-54
2023/01/14 08:43:39;;;;;;;5.20;1.57;;;9.50;1.00;;;;;;5048937;28;21095;-55
2023/01/14 08:46:06;;;;;;;4.63;1.57;;;9.40;1.00;;;;;;5050507;28;20562;-56
2023/01/14 08:48:32;;;;;;;4.33;1.70;;;9.40;1.00;;;;;;5048986;28;21149;-55
2023/01/14 08:51:04;;;;;;;5.10;1.50;;;9.30;1.00;;;;;;5049717;28;20460;-56
2023/01/14 08:53:30;;;;;;;7.07;1.40;;;9.30;1.00;;;;;;5049775;28;20444;-53
2023/01/14 08:55:57;;;;;;;6.23;1.67;;;9.40;1.00;;;;;;5049757;28;20454;-56
2023/01/14 08:58:23;;;;;;;4.77;1.40;;;9.50;1.00;;;;;;5049647;28;20400;-55
2023/01/14 09:00:49;;;;;;;3.10;1.60;;;9.60;1.00;;;;;;5049733;28;20985;-53
2023/01/14 09:03:15;;;;;;;6.77;1.97;;;9.60;1.00;;;;;;5067329;28;20451;-55
2023/01/14 09:05:40;;;;;;;3.20;1.60;;;9.60;1.00;;;;;;5047132;28;20224;-56
2023/01/14 09:19:08;;;;;;;6.90;1.43;;;9.90;1.00;;;;;;5049046;28;20462;-54
2023/01/14 09:21:34;;;;;;;8.93;2.33;;;10.00;1.00;;;;;;5048747;28;20418;-56
2023/01/14 09:23:59;;;;;;;3.83;1.53;;;10.00;1.00;;;;;;5050698;28;20201;-53
2023/01/14 09:26:25;;;;;;;7.13;1.80;;;10.10;1.00;;;;;;5049471;28;20214;-55
2023/01/14 09:28:51;;;;;;;6.30;1.50;;;10.20;1.00;;;;;;5049111;28;20302;-54
2023/01/14 09:31:17;;;;;;;4.77;2.20;;;10.30;1.00;;;;;;5048654;28;20221;-56
2023/01/14 09:33:42;;;;;;;4.17;1.77;;;10.40;1.00;;;;;;5059052;28;20449;-55
2023/01/14 09:36:08;;;;;;;5.50;1.87;;;10.50;1.00;;;;;;5048863;28;20219;-55
2023/01/14 09:38:34;;;;;;;9.80;2.07;;;10.50;1.00;;;;;;5055642;28;20199;-56
2023/01/14 09:40:59;;;;;;;7.70;1.73;;;10.60;1.00;;;;;;5048437;28;20218;-54
2023/01/14 09:43:28;;;;;;;5.03;1.93;;;10.50;1.00;;;;;;5047943;28;20623;-55
2023/01/14 09:45:59;;;;;;;4.30;1.10;;;10.60;1.00;;;;;;5047657;28;20696;-54
2023/01/14 09:48:26;;;;;;;4.80;1.20;;;10.60;1.00;;;;;;5061639;28;20501;-54
2023/01/14 09:51:25;;;;;;;5.27;1.97;;;10.80;1.00;;;;;;5051758;28;20504;-54
2023/01/14 09:54:02;;;;;;;3.90;1.53;;;10.80;1.00;;;;;;5048054;28;20502;-57
2023/01/14 09:56:49;;;;;;;3.23;1.90;;;10.80;1.00;;;;;;5046943;28;20501;-54
2023/01/14 09:59:34;;;;;;;7.30;1.70;;;10.70;1.00;;;;;;5046252;28;20929;-55
2023/01/14 10:02:29;;;;;;;4.30;2.23;;;10.70;1.00;;;;;;5046985;28;20461;-55
2023/01/14 10:05:01;;;;;;;3.40;1.40;;;10.70;1.00;;;;;;5041664;28;20444;-54
2023/01/14 10:07:28;;;;;;;8.97;2.07;;;10.70;1.00;;;;;;5047947;28;21186;-54
2023/01/14 10:09:56;;;;;;;6.43;1.50;;;10.70;1.00;;;;;;5050592;28;20437;-54
2023/01/14 10:12:34;;;;;;;6.50;1.90;;;10.90;1.00;;;;;;5047647;28;20941;-56
2023/01/14 10:15:06;;;;;;;5.93;1.90;;;10.80;1.00;;;;;;5044797;28;20453;-55
2023/01/14 10:17:36;;;;;;;2.47;1.30;;;10.80;1.00;;;;;;5048505;28;20970;-54
2023/01/14 10:20:18;;;;;;;5.73;1.37;;;10.90;1.00;;;;;;5038729;28;20448;-55
2023/01/14 10:22:51;;;;;;;2.93;1.33;;;11.00;1.00;;;;;;5063859;28;20482;-55
2023/01/14 10:25:20;;;;;;;3.00;1.60;;;11.10;1.00;;;;;;5048555;28;20507;-54
2023/01/14 10:27:53;;;;;;;6.33;1.70;;;11.10;1.00;;;;;;5048067;28;20442;-54
2023/01/14 10:30:22;;;;;;;6.57;1.60;;;11.20;1.00;;;;;;5049096;28;20422;-53
2023/01/14 10:32:51;;;;;;;9.17;2.03;;;11.40;99.90;;;;;;5062921;28;20452;-54
2023/01/14 10:35:29;;;;;;;6.47;1.67;;;11.50;99.90;;;;;;5047576;28;20457;-54
2023/01/14 10:37:54;;;;;;;7.60;1.73;;;11.50;99.90;;;;;;5047324;28;20488;-55
2023/01/14 10:40:23;;;;;;;6.93;1.50;;;11.40;99.90;;;;;;5046665;28;20532;-54
2023/01/14 10:42:51;;;;;;;8.20;1.77;;;11.30;99.90;;;;;;5044906;28;20194;-55
2023/01/14 10:45:16;;;;;;;5.97;1.80;;;11.30;99.90;;;;;;5053075;28;20985;-54
2023/01/14 10:47:45;;;;;;;10.80;1.80;;;11.20;99.90;;;;;;5048135;28;20413;-54
2023/01/14 10:50:18;;;;;;;4.47;2.03;;;11.10;99.90;;;;;;5057048;28;20250;-54
2023/01/14 10:52:44;;;;;;;3.53;1.33;;;11.20;99.90;;;;;;5066008;28;20714;-54
2023/01/14 10:55:24;;;;;;;3.70;1.60;;;11.20;99.90;;;;;;5050630;28;20474;-54
2023/01/14 10:57:58;;;;;;;4.50;1.57;;;11.30;99.90;;;;;;5048005;28;20219;-54
2023/01/14 11:00:37;;;;;;;5.90;1.40;;;11.30;99.90;;;;;;5048059;28;20432;-54
2023/01/14 11:03:09;;;;;;;3.90;1.57;;;11.40;99.90;;;;;;5047449;28;20455;-54
2023/01/14 11:05:37;;;;;;;5.23;1.87;;;11.50;99.90;;;;;;5048137;28;20466;-54
2023/01/14 11:08:21;;;;;;;6.60;1.73;;;11.60;99.90;;;;;;5051210;28;20530;-55
2023/01/14 11:10:56;;;;;;;4.63;1.60;;;11.60;99.90;;;;;;5050168;28;20436;-55
2023/01/14 11:13:29;;;;;;;4.37;1.77;;;11.60;99.90;;;;;;5051393;28;20522;-54
2023/01/14 11:15:55;;;;;;;6.87;2.40;;;11.60;99.90;;;;;;5050023;28;20472;-55
2023/01/14 11:18:23;;;;;;;7.00;1.60;;;11.70;99.90;;;;;;5049716;28;20465;-57
2023/01/14 11:21:01;;;;;;;5.07;1.43;;;11.70;99.90;;;;;;5061306;28;20877;-54
2023/01/14 11:23:29;;;;;;;6.03;2.47;;;11.70;99.90;;;;;;5052458;28;20977;-55
2023/01/14 11:25:56;;;;;;;3.27;1.27;;;11.60;99.90;;;;;;5051663;28;20456;-53
2023/01/14 11:28:22;;;;;;;7.17;2.10;;;11.70;99.90;;;;;;5051294;28;20466;-54
2023/01/14 11:30:53;;;;;;;5.07;1.70;;;11.80;99.90;;;;;;5051159;28;20509;-55
2023/01/14 11:33:24;;;;;;;4.07;1.43;;;12.00;99.90;;;;;;5051379;28;20423;-55
2023/01/14 11:35:57;;;;;;;3.13;1.30;;;12.00;99.90;;;;;;5051237;28;20460;-55
2023/01/14 11:38:25;;;;;;;4.70;1.50;;;11.90;99.90;;;;;;5050119;28;20455;-55
2023/01/14 11:44:01;;;;;;;5.30;1.60;;;12.00;99.90;;;;;;5051245;28;20492;-54
2023/01/14 11:46:27;;;;;;;4.87;2.17;;;12.10;99.90;;;;;;5050311;28;20502;-54
2023/01/14 11:49:15;;;;;;;6.33;1.87;;;12.10;99.90;;;;;;5051136;28;20976;-54
2023/01/14 11:51:40;;;;;;;7.73;1.70;;;12.10;99.90;;;;;;5051766;28;20538;-53
2023/01/14 11:54:19;;;;;;;6.30;1.60;;;12.00;99.90;;;;;;5050408;28;20530;-55
2023/01/14 11:56:46;;;;;;;3.17;1.20;;;12.00;99.90;;;;;;5067496;28;20567;-54
2023/01/14 11:59:39;;;;;;;5.40;1.40;;;12.00;99.90;;;;;;5050735;28;20456;-52
2023/01/14 12:02:26;;;;;;;5.97;1.60;;;12.00;99.90;;;;;;5047251;28;20416;-53
2023/01/14 12:05:02;;;;;;;4.73;2.20;;;12.00;99.90;;;;;;5050646;28;20463;-54
2023/01/14 12:07:46;;;;;;;4.10;1.53;;;11.90;99.90;;;;;;5048606;28;20510;-54
2023/01/14 12:10:27;;;;;;;3.77;1.93;;;12.10;99.90;;;;;;5047863;28;20578;-56
2023/01/14 12:18:46;;;;;;;4.60;1.90;;;12.10;99.90;;;;;;5048685;28;20681;-56
2023/01/14 12:21:14;;;;;;;7.90;2.00;;;12.10;99.90;;;;;;5049543;28;20437;-55
2023/01/14 12:23:50;;;;;;;7.97;1.47;;;12.20;99.90;;;;;;5050604;28;20424;-55
2023/01/14 12:26:21;;;;;;;4.60;1.50;;;12.20;99.90;;;;;;5049225;28;20479;-55
2023/01/14 12:28:55;;;;;;;4.40;1.73;;;12.10;99.90;;;;;;5049247;28;20481;-54
2023/01/14 12:31:30;;;;;;;4.33;1.50;;;12.00;99.90;;;;;;5049450;28;20889;-55
2023/01/14 12:34:25;;;;;;;4.20;1.50;;;12.00;99.90;;;;;;5050484;28;20437;-54
2023/01/14 12:37:15;;;;;;;10.77;3.10;;;11.90;99.90;;;;;;5040158;28;21079;-54
2023/01/14 12:45:46;;;;;;;5.10;2.00;;;12.20;99.90;;;;;;5049858;28;20554;-54
2023/01/14 12:48:23;;;;;;;8.80;2.10;;;12.10;99.90;;;;;;5047810;28;20454;-55
2023/01/14 12:50:59;;;;;;;3.70;1.17;;;12.10;99.90;;;;;;5048890;28;20482;-55
2023/01/14 12:53:32;;;;;;;3.50;2.13;;;12.10;99.90;;;;;;5044355;28;20424;-54
2023/01/14 12:56:01;;;;;;;4.33;2.13;;;12.10;99.90;;;;;;5049195;28;20954;-54
2023/01/14 12:58:34;;;;;;;6.47;2.90;;;12.20;99.90;;;;;;5049319;28;20431;-54
2023/01/14 13:01:06;;;;;;;5.73;2.10;;;12.10;99.90;;;;;;5048877;28;20951;-54
2023/01/14 13:03:38;;;;;;;4.30;2.00;;;12.10;99.90;;;;;;5049483;28;20469;-55
2023/01/14 13:06:25;;;;;;;5.67;2.50;;;12.00;99.90;;;;;;5049305;28;20473;-56
2023/01/14 13:08:56;;;;;;;4.97;1.93;;;11.90;99.90;;;;;;5047473;28;20523;-55
2023/01/14 13:11:26;;;;;;;4.70;1.90;;;11.50;99.90;;;;;;5049717;28;20404;-57
2023/01/14 13:13:55;;;;;;;6.57;2.30;;;11.80;99.90;;;;;;5049704;28;20963;-55
2023/01/14 13:16:40;;;;;;;3.80;1.90;;;11.70;99.90;;;;;;5049595;28;20528;-54
2023/01/14 13:19:26;;;;;;;3.60;2.33;;;11.80;99.90;;;;;;5048745;28;20459;-54
2023/01/14 13:22:03;;;;;;;5.23;2.17;;;11.80;99.90;;;;;;5048873;28;20443;-55
2023/01/14 13:24:34;;;;;;;8.70;2.13;;;12.00;99.90;;;;;;5049239;28;20420;-55
2023/01/14 13:27:04;;;;;;;5.20;2.10;;;11.90;99.90;;;;;;5050294;28;20472;-54
2023/01/14 13:29:33;;;;;;;5.60;1.80;;;11.90;99.90;;;;;;5047441;28;20416;-55
2023/01/14 13:32:00;;;;;;;6.00;1.97;;;11.80;99.90;;;;;;5048512;28;21198;-54
2023/01/14 13:34:29;;;;;;;7.77;3.50;;;11.90;99.90;;;;;;5047931;28;20418;-54
2023/01/14 13:37:00;;;;;;;7.77;2.60;;;11.80;99.90;;;;;;5048054;28;20441;-54
2023/01/14 13:39:27;;;;;;;8.20;1.87;;;11.90;99.90;;;;;;5048807;28;20924;-55
2023/01/14 13:41:59;;;;;;;5.13;1.87;;;11.40;1.00;;;;;;5047329;28;20448;-55
2023/01/14 13:44:26;;;;;;;7.20;2.67;;;11.90;1.00;;;;;;5047102;28;20454;-53
2023/01/14 13:46:57;;;;;;;3.80;1.60;;;11.90;99.90;;;;;;5048989;28;20437;-55
2023/01/14 13:49:26;;;;;;;4.73;2.47;;;11.80;1.00;;;;;;5048730;28;20464;-54
2023/01/14 13:52:14;;;;;;;6.27;1.90;;;11.70;1.00;;;;;;5049454;28;20507;-56
2023/01/14 13:54:39;;;;;;;4.50;1.90;;;11.70;1.00;;;;;;5047664;28;20481;-54
2023/01/14 13:57:26;;;;;;;6.13;2.10;;;11.60;1.00;;;;;;5049270;28;20496;-53
2023/01/14 13:59:58;;;;;;;6.83;2.47;;;11.70;1.00;;;;;;5047930;28;20225;-53